createdAt,value
2019-02-23T00:01:41.647Z,13.43
2019-02-23T00:06:45.674Z,13.30
2019-02-23T00:11:49.869Z,12.80
2019-02-23T00:16:54.033Z,11.57
2019-02-23T00:21:58.048Z,13.13
2019-02-23T00:27:02.122Z,12.40
2019-02-23T00:32:06.221Z,10.83
2019-02-23T00:37:13.216Z,12.57
2019-02-23T00:42:17.337Z,13.40
2019-02-23T00:47:21.360Z,11.70
2019-02-23T00:52:25.588Z,11.90
2019-02-23T00:57:29.553Z,11.67
2019-02-23T01:02:34.465Z,12.13
2019-02-23T01:07:38.478Z,12.23
2019-02-23T01:12:42.363Z,12.17
2019-02-23T01:17:46.432Z,13.47
2019-02-23T01:22:50.768Z,12.60
2019-02-23T01:27:54.677Z,13.10
2019-02-23T01:32:58.818Z,14.60
2019-02-23T01:38:02.994Z,13.77
2019-02-23T01:43:07.280Z,14.83
2019-02-23T01:48:11.561Z,15.00
2019-02-23T01:53:16.110Z,16.33
2019-02-23T01:58:20.144Z,17.07
2019-02-23T02:03:25.043Z,16.80
2019-02-23T02:08:29.287Z,16.93
2019-02-23T02:13:33.458Z,17.13
2019-02-23T02:18:37.587Z,17.33
2019-02-23T02:23:41.714Z,16.87
2019-02-23T02:28:45.738Z,16.20
2019-02-23T02:34:03.108Z,16.37
2019-02-23T02:39:10.903Z,17.40
2019-02-23T02:44:15.016Z,16.30
2019-02-23T02:49:18.980Z,17.37
2019-02-23T02:54:23.068Z,16.57
2019-02-23T02:59:27.094Z,16.07
2019-02-23T03:04:32.010Z,15.70
2019-02-23T03:09:35.983Z,16.73
2019-02-23T03:14:39.993Z,15.53
2019-02-23T03:19:43.964Z,16.83
2019-02-23T03:24:47.998Z,15.70
2019-02-23T03:29:52.023Z,16.13
2019-02-23T03:34:55.994Z,14.80
2019-02-23T03:40:00.095Z,15.90
2019-02-23T03:45:04.678Z,15.17
2019-02-23T03:50:08.889Z,16.07
2019-02-23T03:55:12.817Z,16.40
2019-02-23T04:00:16.937Z,15.07
2019-02-23T04:05:22.032Z,15.33
2019-02-23T04:10:26.119Z,15.83
2019-02-23T04:15:30.248Z,15.57
2019-02-23T04:20:34.471Z,15.27
2019-02-23T04:25:38.629Z,14.90
2019-02-23T04:30:42.628Z,15.03
2019-02-23T04:35:46.752Z,16.90
2019-02-23T04:40:50.923Z,15.43
2019-02-23T04:45:55.013Z,15.90
2019-02-23T04:50:59.137Z,16.20
2019-02-23T04:56:03.057Z,15.27
2019-02-23T05:01:07.137Z,15.23
2019-02-23T05:06:11.352Z,15.60
2019-02-23T05:11:15.314Z,16.50
2019-02-23T05:16:19.388Z,16.07
2019-02-23T05:21:26.792Z,16.27
2019-02-23T05:26:29.262Z,18.83
2019-02-23T05:31:33.282Z,17.50
2019-02-23T05:36:37.267Z,15.70
2019-02-23T05:41:41.247Z,16.83
2019-02-23T05:46:45.362Z,17.83
2019-02-23T05:51:49.302Z,18.07
2019-02-23T05:56:53.457Z,16.23
2019-02-23T06:01:57.454Z,18.20
2019-02-23T06:07:02.498Z,17.07
2019-02-23T06:12:06.616Z,17.50
2019-02-23T06:17:10.819Z,17.23
2019-02-23T06:22:15.025Z,16.53
2019-02-23T06:27:19.202Z,18.27
2019-02-23T06:32:23.339Z,17.30
2019-02-23T06:37:27.361Z,16.57
2019-02-23T06:42:31.321Z,17.40
2019-02-23T06:47:35.427Z,16.60
2019-02-23T06:52:39.431Z,17.10
2019-02-23T06:57:43.463Z,17.10
2019-02-23T07:02:47.494Z,16.17
2019-02-23T07:07:51.719Z,16.53
2019-02-23T07:12:55.857Z,16.97
2019-02-23T07:18:00.277Z,17.70
2019-02-23T07:23:04.348Z,17.23
2019-02-23T07:28:10.884Z,17.93
2019-02-23T07:33:14.402Z,18.83
2019-02-23T07:38:18.536Z,16.70
2019-02-23T07:43:22.659Z,17.47
2019-02-23T07:48:26.606Z,17.33
2019-02-23T07:53:30.641Z,17.20
2019-02-23T07:58:34.730Z,17.30
2019-02-23T08:03:38.857Z,17.13
2019-02-23T08:08:43.916Z,17.03
2019-02-23T08:13:48.024Z,17.07
2019-02-23T08:18:51.962Z,16.70
2019-02-23T08:23:55.988Z,18.50
2019-02-23T08:29:00.133Z,15.97
2019-02-23T08:34:04.241Z,17.20
2019-02-23T08:39:08.376Z,17.40
2019-02-23T08:44:12.497Z,17.40
2019-02-23T08:49:16.570Z,16.90
2019-02-23T08:54:20.652Z,16.73
2019-02-23T08:59:24.676Z,16.00
2019-02-23T09:04:28.811Z,17.37
2019-02-23T09:09:33.906Z,15.90
2019-02-23T09:14:38.287Z,15.60
2019-02-23T09:19:42.518Z,15.43
2019-02-23T09:24:46.551Z,14.93
2019-02-23T09:29:50.690Z,14.07
2019-02-23T09:34:54.598Z,14.97
2019-02-23T09:39:59.136Z,14.00
2019-02-23T09:45:03.467Z,14.67
2019-02-23T09:50:08.208Z,14.10
2019-02-23T09:55:13.033Z,15.10
2019-02-23T10:00:17.286Z,15.07
2019-02-23T10:05:21.526Z,16.07
2019-02-23T10:10:25.817Z,16.03
2019-02-23T10:15:29.867Z,15.37
2019-02-23T10:20:33.950Z,17.17
2019-02-23T10:25:38.134Z,17.03
2019-02-23T10:30:43.386Z,14.80
2019-02-23T10:35:47.617Z,15.03
2019-02-23T10:40:51.664Z,15.27
2019-02-23T10:45:55.671Z,15.13
2019-02-23T10:50:59.687Z,15.17
2019-02-23T10:56:03.711Z,14.57
2019-02-23T11:01:07.628Z,13.10
2019-02-23T11:06:11.818Z,13.50
2019-02-23T11:11:16.247Z,14.17
2019-02-23T11:16:20.532Z,14.17
2019-02-23T11:21:24.767Z,13.03
2019-02-23T11:26:29.049Z,13.30
2019-02-23T11:31:33.226Z,13.77
2019-02-23T11:36:37.347Z,13.20
2019-02-23T11:41:41.499Z,13.00
2019-02-23T11:46:59.842Z,13.33
2019-02-23T11:51:51.279Z,14.73
2019-02-23T11:56:55.463Z,15.80
2019-02-23T12:01:59.527Z,13.90
2019-02-23T12:07:03.758Z,13.13
2019-02-23T12:12:07.934Z,13.70
2019-02-23T12:17:11.940Z,13.13
2019-02-23T12:22:18.501Z,13.63
2019-02-23T12:27:22.411Z,16.83
2019-02-23T12:32:26.542Z,17.73
2019-02-23T12:37:30.613Z,16.77
2019-02-23T12:42:35.013Z,16.17
2019-02-23T12:47:38.990Z,15.20
2019-02-23T12:52:43.345Z,16.93
2019-02-23T12:57:47.365Z,15.50
2019-02-23T13:02:51.932Z,16.23
2019-02-23T13:07:55.891Z,15.70
2019-02-23T13:13:16.937Z,15.30
2019-02-23T13:18:38.046Z,16.43
2019-02-23T13:24:03.027Z,15.20
2019-02-23T13:29:16.416Z,16.07
2019-02-23T13:34:48.132Z,16.03
2019-02-23T13:40:11.001Z,15.57
2019-02-23T13:45:30.647Z,18.37
2019-02-23T13:50:42.969Z,18.53
2019-02-23T13:56:03.902Z,17.73
2019-02-23T14:01:22.356Z,20.13
2019-02-23T14:06:34.029Z,19.77
2019-02-23T14:11:53.495Z,18.97
2019-02-23T14:17:09.396Z,22.07
2019-02-23T14:22:27.244Z,23.83
2019-02-23T14:27:53.193Z,25.57
2019-02-23T14:33:15.701Z,26.23
2019-02-23T14:38:33.795Z,24.63
2019-02-23T14:43:50.786Z,20.53
2019-02-23T14:49:10.848Z,19.60
2019-02-23T14:54:21.867Z,17.70
2019-02-23T14:59:52.347Z,20.60
2019-02-23T15:05:12.458Z,18.27
2019-02-23T15:10:31.133Z,17.10
2019-02-23T15:15:53.081Z,17.47
2019-02-23T15:21:19.941Z,16.17
2019-02-23T15:26:37.219Z,13.47
2019-02-23T15:32:00.153Z,15.30
2019-02-23T15:37:17.631Z,15.10
2019-02-23T15:42:34.104Z,14.23
2019-02-23T15:47:49.862Z,15.00
2019-02-23T15:52:54.011Z,12.43
2019-02-23T15:57:57.978Z,11.67
2019-02-23T16:03:02.142Z,12.87
2019-02-23T16:08:06.062Z,11.53
2019-02-23T16:13:10.334Z,12.80
2019-02-23T16:18:14.478Z,13.50
2019-02-23T16:23:18.947Z,14.17
2019-02-23T16:28:23.186Z,20.53
2019-02-23T16:33:27.419Z,25.00
2019-02-23T16:38:31.534Z,32.67
2019-02-23T16:43:35.691Z,33.10
2019-02-23T16:48:39.667Z,25.53
2019-02-23T16:53:43.667Z,29.83
2019-02-23T16:58:48.007Z,23.50
2019-02-23T17:03:52.130Z,13.60
2019-02-23T17:08:56.316Z,15.77
2019-02-23T17:14:00.338Z,15.53
2019-02-23T17:24:22.586Z,18.73
2019-02-23T17:29:26.815Z,17.07
2019-02-23T17:34:30.817Z,20.70
2019-02-23T17:39:35.012Z,23.73
2019-02-23T17:44:39.084Z,37.87
2019-02-23T17:49:43.105Z,39.80
2019-02-23T17:54:47.339Z,17.97
2019-02-23T17:59:51.931Z,19.60
2019-02-23T18:04:56.217Z,20.13
2019-02-23T18:10:00.392Z,18.33
2019-02-23T18:15:04.886Z,17.23
2019-02-23T18:20:10.284Z,16.30
2019-02-23T18:25:14.777Z,16.63
2019-02-23T18:30:18.998Z,18.63
2019-02-23T18:35:23.172Z,15.47
2019-02-23T18:40:27.211Z,20.23
2019-02-23T18:45:31.312Z,32.50
2019-02-23T18:50:35.351Z,21.30
2019-02-23T18:55:41.325Z,27.70
2019-02-23T19:00:45.233Z,14.67
2019-02-23T19:05:50.157Z,13.63
2019-02-23T19:10:55.805Z,14.03
2019-02-23T19:16:02.140Z,26.03
2019-02-23T19:21:06.057Z,10.47
2019-02-23T19:26:10.138Z,9.33
2019-02-23T19:31:14.146Z,10.10
2019-02-23T19:36:18.230Z,12.30
2019-02-23T19:41:22.255Z,10.23
2019-02-23T19:46:26.690Z,11.77
2019-02-23T19:51:30.982Z,9.83
2019-02-23T19:56:35.105Z,13.33
2019-02-23T20:01:39.438Z,9.87
2019-02-23T20:06:43.671Z,10.40
2019-02-23T20:11:48.747Z,7.50
2019-02-23T20:16:54.857Z,10.17
2019-02-23T20:21:58.923Z,12.13
2019-02-23T20:27:03.374Z,10.47
2019-02-23T20:32:07.442Z,11.93
2019-02-23T20:37:11.508Z,34.53
2019-02-23T20:42:15.588Z,48.60
2019-02-23T20:47:22.793Z,58.43
2019-02-23T20:52:27.124Z,64.23
2019-02-23T20:57:31.513Z,29.80
2019-02-23T21:02:35.683Z,23.87
2019-02-23T21:07:39.912Z,77.50
2019-02-23T21:12:43.868Z,61.27
2019-02-23T21:17:47.814Z,100.27
2019-02-23T21:22:52.024Z,62.63
2019-02-23T21:27:56.118Z,42.40
2019-02-23T21:33:00.062Z,73.37
2019-02-23T21:38:04.105Z,64.73
2019-02-23T21:43:08.198Z,65.93
2019-02-23T21:48:12.473Z,83.63
2019-02-23T21:53:17.612Z,72.00
2019-02-23T21:58:21.756Z,41.50
2019-02-23T22:03:25.942Z,40.07
2019-02-23T22:08:29.968Z,53.80
2019-02-23T22:13:34.262Z,62.67
2019-02-23T22:18:38.355Z,100.63
2019-02-23T22:23:42.554Z,175.43
2019-02-23T22:28:46.660Z,125.00
2019-02-23T22:33:50.698Z,61.97
2019-02-23T22:38:54.824Z,66.87
2019-02-23T22:44:00.061Z,73.50
2019-02-23T22:49:04.319Z,70.20
2019-02-23T22:54:08.320Z,72.80
2019-02-23T22:59:12.253Z,52.63
2019-02-23T23:04:16.288Z,58.00
2019-02-23T23:09:20.438Z,50.87
2019-02-23T23:14:24.489Z,53.27
2019-02-23T23:19:28.722Z,54.13
2019-02-23T23:24:32.808Z,68.60
2019-02-23T23:29:37.274Z,69.03
2019-02-23T23:34:41.409Z,45.97
2019-02-23T23:39:45.592Z,47.93
2019-02-23T23:44:49.718Z,53.87
2019-02-23T23:49:53.742Z,48.77
2019-02-23T23:54:57.772Z,56.63
